Observation data for Gail on 05/24/2020      Previous  Date  Next       Current Mesonet Observations  Soil Data  Daily Summary Page  Observations in Plain Language
KGGS 240500Z 12006KT 19/11 A2987 RMK A01 T01900111  RH  062%=      5-min Rain = 0
KGGS 240505Z 12007KT 19/11 A2987 RMK A01 T01900110  RH  062%=      5-min Rain = 0
KGGS 240510Z 13006G11KT 19/11 A2987 RMK A01 T01900110  RH  062%=      5-min Rain = 0
KGGS 240515Z 12007KT 19/11 A2987 RMK A01 T01900110  RH  062%=      5-min Rain = 0
KGGS 240520Z 13007KT 19/11 A2987 RMK A01 T01900110  RH  062%=      5-min Rain = 0
KGGS 240525Z 13006KT 19/11 A2987 RMK A01 T01900110  RH  062%=      5-min Rain = 0
KGGS 240530Z 12006KT 19/11 A2987 RMK A01 T01880110  RH  063%=      5-min Rain = 0
KGGS 240535Z 12007KT 19/11 A2987 RMK A01 T01870110  RH  063%=      5-min Rain = 0
KGGS 240540Z 12006KT 19/11 A2986 RMK A01 T01860111  RH  064%=      5-min Rain = 0
KGGS 240545Z 13006KT 18/11 A2986 RMK A01 T01840111  RH  065%=      5-min Rain = 0
KGGS 240550Z 13006KT 18/11 A2987 RMK A01 T01820111  RH  066%=      5-min Rain = 0
KGGS 240555Z 12006KT 18/11 A2986 RMK A01 T01820112  RH  066%=      5-min Rain = 0
KGGS 240600Z 12006KT 18/11 A2986 RMK A01 T01830112  RH  066%=      5-min Rain = 0
KGGS 240605Z 12006KT 18/11 A2986 RMK A01 T01810113  RH  066%=      5-min Rain = 0
KGGS 240610Z 12006KT 18/11 A2986 RMK A01 T01810113  RH  067%=      5-min Rain = 0
KGGS 240615Z 12005KT 18/11 A2986 RMK A01 T01800112  RH  067%=      5-min Rain = 0
KGGS 240620Z 12004KT 18/11 A2986 RMK A01 T01790112  RH  068%=      5-min Rain = 0
KGGS 240625Z 11003KT 18/11 A2986 RMK A01 T01760112  RH  069%=      5-min Rain = 0
KGGS 240630Z 12002KT 17/11 A2986 RMK A01 T01740112  RH  069%=      5-min Rain = 0
KGGS 240635Z 17001KT 17/11 A2986 RMK A01 T01720112  RH  070%=      5-min Rain = 0
KGGS 240640Z 18001KT 17/11 A2985 RMK A01 T01680111  RH  072%=      5-min Rain = 0
KGGS 240645Z 20002KT 17/11 A2986 RMK A01 T01650111  RH  073%=      5-min Rain = 0
KGGS 240650Z 21004KT 16/11 A2986 RMK A01 T01630111  RH  074%=      5-min Rain = 0
KGGS 240655Z 18004KT 16/11 A2986 RMK A01 T01630111  RH  074%=      5-min Rain = 0
KGGS 240700Z 17005KT 16/11 A2985 RMK A01 T01620111  RH  074%=      5-min Rain = 0
KGGS 240705Z 16005KT 16/11 A2985 RMK A01 T01600110  RH  075%=      5-min Rain = 0
KGGS 240710Z 15005KT 16/11 A2986 RMK A01 T01580111  RH  076%=      5-min Rain = 0
KGGS 240715Z 15005KT 16/11 A2986 RMK A01 T01580112  RH  077%=      5-min Rain = 0
KGGS 240720Z 14004KT 16/11 A2985 RMK A01 T01610113  RH  076%=      5-min Rain = 0
KGGS 240725Z 15003KT 16/11 A2985 RMK A01 T01630114  RH  075%=      5-min Rain = 0
KGGS 240730Z 17003KT 16/11 A2985 RMK A01 T01640113  RH  075%=      5-min Rain = 0
KGGS 240735Z 18002KT 16/11 A2985 RMK A01 T01640113  RH  075%=      5-min Rain = 0
KGGS 240740Z 17003KT 16/11 A2985 RMK A01 T01620112  RH  075%=      5-min Rain = 0
KGGS 240745Z 16001KT 16/11 A2985 RMK A01 T01610112  RH  075%=      5-min Rain = 0
KGGS 240750Z 19000KT 16/11 A2985 RMK A01 T01600111  RH  075%=      5-min Rain = 0
KGGS 240755Z 27001KT 16/11 A2985 RMK A01 T01570110  RH  076%=      5-min Rain = 0
KGGS 240800Z 30001KT 15/11 A2985 RMK A01 T01540109  RH  077%=      5-min Rain = 0
KGGS 240805Z 32001KT 15/11 A2985 RMK A01 T01480106  RH  079%=      5-min Rain = 0
KGGS 240810Z 03001KT 15/11 A2985 RMK A01 T01460107  RH  080%=      5-min Rain = 0
KGGS 240815Z 04001KT 15/11 A2985 RMK A01 T01460108  RH  081%=      5-min Rain = 0
KGGS 240820Z 07002KT 15/11 A2985 RMK A01 T01450109  RH  081%=      5-min Rain = 0
KGGS 240825Z 09003KT 15/11 A2985 RMK A01 T01450110  RH  082%=      5-min Rain = 0
KGGS 240830Z 09002KT 15/11 A2985 RMK A01 T01480113  RH  082%=      5-min Rain = 0
KGGS 240835Z 08002KT 15/11 A2985 RMK A01 T01510114  RH  082%=      5-min Rain = 0
KGGS 240840Z 05000KT 15/11 A2985 RMK A01 T01520114  RH  081%=      5-min Rain = 0
KGGS 240845Z 05001KT 15/11 A2985 RMK A01 T01540114  RH  080%=      5-min Rain = 0
KGGS 240850Z 10000KT 15/11 A2986 RMK A01 T01530112  RH  080%=      5-min Rain = 0
KGGS 240855Z 12001KT 15/11 A2985 RMK A01 T01520112  RH  080%=      5-min Rain = 0
KGGS 240900Z 12002KT 15/11 A2986 RMK A01 T01500111  RH  080%=      5-min Rain = 0
KGGS 240905Z 13000KT 15/11 A2986 RMK A01 T01480111  RH  081%=      5-min Rain = 0
KGGS 240910Z 09000KT 15/11 A2986 RMK A01 T01490113  RH  082%=      5-min Rain = 0
KGGS 240915Z 12000KT 15/11 A2986 RMK A01 T01500113  RH  081%=      5-min Rain = 0
KGGS 240920Z 11000KT 15/11 A2986 RMK A01 T01480110  RH  081%=      5-min Rain = 0
KGGS 240925Z 35000KT 14/11 A2985 RMK A01 T01420106  RH  082%=      5-min Rain = 0
KGGS 240930Z 15001KT 15/11 A2986 RMK A01 T01450111  RH  083%=      5-min Rain = 0
KGGS 240935Z 13002KT 15/11 A2985 RMK A01 T01450110  RH  083%=      5-min Rain = 0
KGGS 240940Z 13002KT 14/11 A2985 RMK A01 T01440110  RH  083%=      5-min Rain = 0
KGGS 240945Z 12003KT 14/11 A2985 RMK A01 T01420109  RH  083%=      5-min Rain = 0
KGGS 240950Z 13003KT 14/11 A2985 RMK A01 T01390108  RH  084%=      5-min Rain = 0
KGGS 240955Z 16003KT 14/11 A2985 RMK A01 T01440114  RH  085%=      5-min Rain = 0
KGGS 241000Z 17003KT 15/12 A2985 RMK A01 T01470116  RH  085%=      5-min Rain = 0
KGGS 241005Z 17003KT 15/12 A2984 RMK A01 T01460115  RH  084%=      5-min Rain = 0
KGGS 241010Z 16004KT 15/12 A2984 RMK A01 T01470116  RH  084%=      5-min Rain = 0
KGGS 241015Z 16006KT 15/12 A2984 RMK A01 T01500119  RH  084%=      5-min Rain = 0
KGGS 241020Z 17006KT 15/12 A2984 RMK A01 T01540121  RH  084%=      5-min Rain = 0
KGGS 241025Z 17006KT 16/12 A2984 RMK A01 T01560122  RH  084%=      5-min Rain = 0
KGGS 241030Z 15006KT 16/12 A2984 RMK A01 T01550122  RH  084%=      5-min Rain = 0
KGGS 241035Z 14005KT 15/12 A2984 RMK A01 T01540122  RH  084%=      5-min Rain = 0
KGGS 241040Z 14005KT 15/12 A2984 RMK A01 T01540123  RH  084%=      5-min Rain = 0
KGGS 241045Z 17005KT 16/13 A2984 RMK A01 T01570125  RH  084%=      5-min Rain = 0
KGGS 241050Z 18005KT 16/13 A2984 RMK A01 T01580125  RH  084%=      5-min Rain = 0
KGGS 241055Z 16004KT 16/12 A2984 RMK A01 T01570124  RH  084%=      5-min Rain = 0
KGGS 241100Z 16005KT 16/12 A2984 RMK A01 T01560123  RH  084%=      5-min Rain = 0
KGGS 241105Z 16006KT 16/12 A2984 RMK A01 T01560124  RH  084%=      5-min Rain = 0
KGGS 241110Z 17006KT 16/12 A2984 RMK A01 T01570124  RH  084%=      5-min Rain = 0
KGGS 241115Z 17005KT 16/12 A2984 RMK A01 T01570124  RH  083%=      5-min Rain = 0
KGGS 241120Z 16005KT 16/12 A2984 RMK A01 T01580124  RH  083%=      5-min Rain = 0
KGGS 241125Z 16005KT 16/12 A2984 RMK A01 T01580123  RH  083%=      5-min Rain = 0
KGGS 241130Z 16005KT 16/12 A2984 RMK A01 T01570123  RH  083%=      5-min Rain = 0
KGGS 241135Z 16005KT 16/12 A2984 RMK A01 T01560122  RH  083%=      5-min Rain = 0
KGGS 241140Z 15005KT 16/12 A2984 RMK A01 T01550121  RH  083%=      5-min Rain = 0
KGGS 241145Z 15005KT 16/12 A2984 RMK A01 T01560122  RH  083%=      5-min Rain = 0
KGGS 241150Z 15005KT 16/12 A2984 RMK A01 T01580123  RH  083%=      5-min Rain = 0
KGGS 241155Z 15005KT 16/12 A2984 RMK A01 T01580123  RH  083%=      5-min Rain = 0
KGGS 241200Z 15005KT 16/12 A2984 RMK A01 T01590123  RH  082%=      5-min Rain = 0
KGGS 241205Z 15006KT 16/12 A2984 RMK A01 T01610123  RH  082%=      5-min Rain = 0
KGGS 241210Z 15006KT 16/12 A2985 RMK A01 T01640124  RH  080%=      5-min Rain = 0
KGGS 241215Z 14006KT 17/12 A2985 RMK A01 T01680124  RH  079%=      5-min Rain = 0
KGGS 241220Z 14006KT 17/13 A2985 RMK A01 T01700125  RH  078%=      5-min Rain = 0
KGGS 241225Z 14006KT 17/13 A2985 RMK A01 T01720125  RH  077%=      5-min Rain = 0
KGGS 241230Z 14005KT 17/13 A2986 RMK A01 T01730125  RH  076%=      5-min Rain = 0
KGGS 241235Z 14006KT 18/13 A2986 RMK A01 T01760125  RH  075%=      5-min Rain = 0
KGGS 241240Z 13007KT 18/13 A2986 RMK A01 T01790125  RH  073%=      5-min Rain = 0
KGGS 241245Z 14006KT 18/13 A2986 RMK A01 T01830125  RH  072%=      5-min Rain = 0
KGGS 241250Z 14007KT 19/12 A2986 RMK A01 T01850124  RH  070%=      5-min Rain = 0
KGGS 241255Z 14007G12KT 19/12 A2986 RMK A01 T01880124  RH  069%=      5-min Rain = 0
KGGS 241300Z 14008G13KT 19/12 A2986 RMK A01 T01910123  RH  067%=      5-min Rain = 0
KGGS 241305Z 14010KT 19/12 A2986 RMK A01 T01930122  RH  066%=      5-min Rain = 0
KGGS 241310Z 14010KT 20/12 A2986 RMK A01 T01950123  RH  065%=      5-min Rain = 0
KGGS 241315Z 14009G14KT 20/12 A2986 RMK A01 T01960123  RH  065%=      5-min Rain = 0
KGGS 241320Z 15010G15KT 20/12 A2986 RMK A01 T01990123  RH  064%=      5-min Rain = 0
KGGS 241325Z 15010KT 21/12 A2985 RMK A01 T02050124  RH  062%=      5-min Rain = 0
KGGS 241330Z 16010G15KT 20/12 A2985 RMK A01 T02040123  RH  062%=      5-min Rain = 0
KGGS 241335Z 16010KT 21/13 A2985 RMK A01 T02080126  RH  062%=      5-min Rain = 0
KGGS 241340Z 16011G16KT 21/13 A2984 RMK A01 T02130128  RH  061%=      5-min Rain = 0
KGGS 241345Z 16009KT 21/13 A2984 RMK A01 T02140129  RH  061%=      5-min Rain = 0
KGGS 241350Z 17009KT 22/13 A2984 RMK A01 T02180130  RH  060%=      5-min Rain = 0
KGGS 241355Z 17010KT 22/13 A2984 RMK A01 T02200132  RH  060%=      5-min Rain = 0
KGGS 241400Z 16011G17KT 23/14 A2984 RMK A01 T02250136  RH  059%=      5-min Rain = 0
KGGS 241405Z 16013KT 23/14 A2984 RMK A01 T02270137  RH  059%=      5-min Rain = 0
KGGS 241410Z 17011G16KT 23/14 A2984 RMK A01 T02290138  RH  059%=      5-min Rain = 0
KGGS 241415Z 17012G17KT 23/14 A2984 RMK A01 T02320140  RH  059%=      5-min Rain = 0
KGGS 241420Z 17012KT 23/14 A2984 RMK A01 T02340142  RH  058%=      5-min Rain = 0
KGGS 241425Z 17012G18KT 24/14 A2984 RMK A01 T02380143  RH  058%=      5-min Rain = 0
KGGS 241430Z 16013G19KT 24/14 A2984 RMK A01 T02400144  RH  057%=      5-min Rain = 0
KGGS 241435Z 17014G20KT 24/14 A2984 RMK A01 T02400144  RH  057%=      5-min Rain = 0
KGGS 241440Z 17015G20KT 24/15 A2984 RMK A01 T02430146  RH  057%=      5-min Rain = 0
KGGS 241445Z 17014G19KT 25/15 A2984 RMK A01 T02480148  RH  056%=      5-min Rain = 0
KGGS 241450Z 17014G19KT 25/15 A2984 RMK A01 T02480149  RH  057%=      5-min Rain = 0
KGGS 241455Z 16014G19KT 25/15 A2984 RMK A01 T02500150  RH  056%=      5-min Rain = 0
KGGS 241500Z 17014G22KT 25/15 A2984 RMK A01 T02520152  RH  056%=      5-min Rain = 0
KGGS 241505Z 18015G20KT 26/15 A2984 RMK A01 T02570153  RH  055%=      5-min Rain = 0
KGGS 241510Z 18015G21KT 26/15 A2984 RMK A01 T02550153  RH  056%=      5-min Rain = 0
KGGS 241515Z 19014G21KT 26/16 A2984 RMK A01 T02580155  RH  055%=      5-min Rain = 0
KGGS 241520Z 17015G22KT 26/15 A2984 RMK A01 T02560154  RH  056%=      5-min Rain = 0
KGGS 241525Z 18017G24KT 25/15 A2984 RMK A01 T02540152  RH  056%=      5-min Rain = 0
KGGS 241530Z 18016G22KT 26/15 A2984 RMK A01 T02550153  RH  056%=      5-min Rain = 0
KGGS 241535Z 18015G21KT 26/15 A2984 RMK A01 T02570153  RH  055%=      5-min Rain = 0
KGGS 241540Z 17015G21KT 26/15 A2983 RMK A01 T02590153  RH  054%=      5-min Rain = 0
KGGS 241545Z 17015G21KT 26/15 A2983 RMK A01 T02590153  RH  055%=      5-min Rain = 0
KGGS 241550Z 18012G19KT 27/16 A2983 RMK A01 T02650156  RH  054%=      5-min Rain = 0
KGGS 241555Z 18014G21KT 27/16 A2983 RMK A01 T02670156  RH  053%=      5-min Rain = 0
KGGS 241600Z 19015G22KT 26/16 A2983 RMK A01 T02640156  RH  054%=      5-min Rain = 0
KGGS 241605Z 19015KT 27/16 A2983 RMK A01 T02670157  RH  054%=      5-min Rain = 0
KGGS 241610Z 18014G22KT 27/16 A2983 RMK A01 T02680158  RH  054%=      5-min Rain = 0
KGGS 241615Z 18015G21KT 27/16 A2983 RMK A01 T02660158  RH  054%=      5-min Rain = 0
KGGS 241620Z 17015G22KT 27/16 A2983 RMK A01 T02670159  RH  054%=      5-min Rain = 0
KGGS 241625Z 17016G22KT 27/16 A2983 RMK A01 T02700160  RH  053%=      5-min Rain = 0
KGGS 241630Z 18014G23KT 27/16 A2982 RMK A01 T02720160  RH  053%=      5-min Rain = 0
KGGS 241635Z 18014G20KT 27/16 A2982 RMK A01 T02690159  RH  053%=      5-min Rain = 0
KGGS 241640Z 16014G19KT 27/16 A2982 RMK A01 T02710161  RH  053%=      5-min Rain = 0
KGGS 241645Z 17013G19KT 28/16 A2982 RMK A01 T02810162  RH  051%=      5-min Rain = 0
KGGS 241650Z 16014G22KT 28/16 A2982 RMK A01 T02830161  RH  050%=      5-min Rain = 0
KGGS 241655Z 16014G20KT 28/16 A2982 RMK A01 T02810161  RH  050%=      5-min Rain = 0
KGGS 241700Z 17012G18KT 28/16 A2982 RMK A01 T02820161  RH  050%=      5-min Rain = 0
KGGS 241705Z 17014G21KT 28/16 A2982 RMK A01 T02840162  RH  050%=      5-min Rain = 0
KGGS 241710Z 17014G22KT 29/16 A2982 RMK A01 T02870160  RH  049%=      5-min Rain = 0
KGGS 241715Z 17013G18KT 28/16 A2982 RMK A01 T02820158  RH  049%=      5-min Rain = 0
KGGS 241720Z 17013G21KT 29/16 A2982 RMK A01 T02880157  RH  047%=      5-min Rain = 0
KGGS 241725Z 18014G20KT 28/16 A2981 RMK A01 T02840156  RH  048%=      5-min Rain = 0
KGGS 241730Z 17013G21KT 29/16 A2981 RMK A01 T02880155  RH  047%=      5-min Rain = 0
KGGS 241735Z 18013G20KT 29/15 A2981 RMK A01 T02920153  RH  045%=      5-min Rain = 0
KGGS 241740Z 18012G20KT 30/16 A2981 RMK A01 T02970156  RH  045%=      5-min Rain = 0
KGGS 241745Z 19013G18KT 30/15 A2981 RMK A01 T02980150  RH  042%=      5-min Rain = 0
KGGS 241750Z 18012G20KT 30/15 A2981 RMK A01 T03000152  RH  043%=      5-min Rain = 0
KGGS 241755Z 18011G20KT 30/15 A2981 RMK A01 T03010150  RH  042%=      5-min Rain = 0
KGGS 241800Z 17011G17KT 30/15 A2981 RMK A01 T03010146  RH  041%=      5-min Rain = 0
KGGS 241805Z 18013G20KT 30/15 A2981 RMK A01 T03030146  RH  040%=      5-min Rain = 0
KGGS 241810Z 18014G19KT 30/15 A298 RMK A01 T03030148  RH  041%=      5-min Rain = 0
KGGS 241815Z 17013G19KT 30/15 A298 RMK A01 T03030149  RH  041%=      5-min Rain = 0
KGGS 241820Z 17012G20KT 31/15 A298 RMK A01 T03090148  RH  039%=      5-min Rain = 0
KGGS 241825Z 17013G21KT 31/15 A298 RMK A01 T03050148  RH  040%=      5-min Rain = 0
KGGS 241830Z 17013G19KT 31/15 A2979 RMK A01 T03050147  RH  040%=      5-min Rain = 0
KGGS 241835Z 17012G17KT 31/15 A2979 RMK A01 T03100148  RH  039%=      5-min Rain = 0
KGGS 241840Z 16012G19KT 31/15 A2979 RMK A01 T03070150  RH  040%=      5-min Rain = 0
KGGS 241845Z 17013G19KT 31/15 A2979 RMK A01 T03120147  RH  038%=      5-min Rain = 0
KGGS 241850Z 18012G19KT 31/15 A2978 RMK A01 T03130146  RH  038%=      5-min Rain = 0
KGGS 241855Z 17013G18KT 31/14 A2978 RMK A01 T03130144  RH  037%=      5-min Rain = 0
KGGS 241900Z 18010G16KT 31/15 A2978 RMK A01 T03130146  RH  038%=      5-min Rain = 0
KGGS 241905Z 17012KT 32/15 A2978 RMK A01 T03190149  RH  037%=      5-min Rain = 0
KGGS 241910Z 18013G18KT 32/15 A2977 RMK A01 T03170145  RH  037%=      5-min Rain = 0
KGGS 241915Z 18012G20KT 32/15 A2977 RMK A01 T03200149  RH  037%=      5-min Rain = 0
KGGS 241920Z 15013G19KT 32/15 A2977 RMK A01 T03170147  RH  037%=      5-min Rain = 0
KGGS 241925Z 16013G20KT 32/15 A2976 RMK A01 T03200147  RH  037%=      5-min Rain = 0
KGGS 241930Z 16009G16KT 32/15 A2976 RMK A01 T03210147  RH  037%=      5-min Rain = 0
KGGS 241935Z 17012G19KT 33/15 A2976 RMK A01 T03270147  RH  035%=      5-min Rain = 0
KGGS 241940Z 17010G16KT 32/15 A2975 RMK A01 T03220146  RH  036%=      5-min Rain = 0
KGGS 241945Z 17012G18KT 32/15 A2975 RMK A01 T03240145  RH  036%=      5-min Rain = 0
KGGS 241950Z 17008G18KT 32/14 A2975 RMK A01 T03220144  RH  036%=      5-min Rain = 0
KGGS 241955Z 15012G18KT 33/14 A2975 RMK A01 T03260143  RH  034%=      5-min Rain = 0
KGGS 242000Z 15010G16KT 33/14 A2975 RMK A01 T03270143  RH  034%=      5-min Rain = 0
KGGS 242005Z 16009G14KT 33/14 A2974 RMK A01 T03270141  RH  034%=      5-min Rain = 0
KGGS 242010Z 15012G18KT 33/14 A2974 RMK A01 T03270140  RH  034%=      5-min Rain = 0
KGGS 242015Z 18010G19KT 33/14 A2974 RMK A01 T03280141  RH  034%=      5-min Rain = 0
KGGS 242020Z 18010G18KT 33/14 A2973 RMK A01 T03270137  RH  033%=      5-min Rain = 0
KGGS 242025Z 17010KT 33/14 A2973 RMK A01 T03280136  RH  033%=      5-min Rain = 0
KGGS 242030Z 15012G20KT 33/14 A2973 RMK A01 T03310135  RH  032%=      5-min Rain = 0
KGGS 242035Z 16010G17KT 34/13 A2973 RMK A01 T03360132  RH  030%=      5-min Rain = 0
KGGS 242040Z 18009G14KT 33/13 A2972 RMK A01 T03330132  RH  031%=      5-min Rain = 0
KGGS 242045Z 17009G17KT 34/13 A2972 RMK A01 T03410133  RH  030%=      5-min Rain = 0
KGGS 242050Z 18011KT 34/13 A2971 RMK A01 T03390128  RH  029%=      5-min Rain = 0
KGGS 242055Z 17007G12KT 34/12 A2971 RMK A01 T03350124  RH  029%=      5-min Rain = 0
KGGS 242100Z 18010G16KT 34/13 A297 RMK A01 T03400129  RH  029%=      5-min Rain = 0
KGGS 242105Z 18011G17KT 34/13 A297 RMK A01 T03390127  RH  029%=      5-min Rain = 0
KGGS 242110Z 17010G16KT 34/13 A2969 RMK A01 T03370125  RH  029%=      5-min Rain = 0
KGGS 242115Z 16011G17KT 34/12 A2969 RMK A01 T03420123  RH  028%=      5-min Rain = 0
KGGS 242120Z 16012G17KT 34/11 A2969 RMK A01 T03420114  RH  026%=      5-min Rain = 0
KGGS 242125Z 17009G15KT 34/12 A2968 RMK A01 T03400115  RH  026%=      5-min Rain = 0
KGGS 242130Z 16009G15KT 34/12 A2968 RMK A01 T03400117  RH  027%=      5-min Rain = 0
KGGS 242135Z 16009G14KT 34/12 A2967 RMK A01 T03420118  RH  027%=      5-min Rain = 0
KGGS 242140Z 13006G11KT 34/12 A2967 RMK A01 T03360116  RH  027%=      5-min Rain = 0
KGGS 242145Z 16007G14KT 34/11 A2967 RMK A01 T03410113  RH  026%=      5-min Rain = 0
KGGS 242150Z 15006G11KT 34/11 A2966 RMK A01 T03440111  RH  025%=      5-min Rain = 0
KGGS 242155Z 15010G15KT 34/11 A2966 RMK A01 T03400112  RH  026%=      5-min Rain = 0
KGGS 242200Z 16012KT 34/11 A2966 RMK A01 T03370108  RH  026%=      5-min Rain = 0
KGGS 242205Z 18007KT 33/11 A2966 RMK A01 T03330109  RH  026%=      5-min Rain = 0
KGGS 242210Z 17008G13KT 34/11 A2965 RMK A01 T03350108  RH  026%=      5-min Rain = 0
KGGS 242215Z 17007G15KT 33/11 A2965 RMK A01 T03340112  RH  027%=      5-min Rain = 0
KGGS 242220Z 16010G16KT 33/11 A2965 RMK A01 T03340113  RH  027%=      5-min Rain = 0
KGGS 242225Z 17009KT 33/11 A2965 RMK A01 T03340112  RH  027%=      5-min Rain = 0
KGGS 242230Z 17011KT 33/10 A2964 RMK A01 T03320097  RH  024%=      5-min Rain = 0
KGGS 242235Z 18010KT 33/09 A2964 RMK A01 T03330091  RH  023%=      5-min Rain = 0
KGGS 242240Z 19009G15KT 33/10 A2964 RMK A01 T03340096  RH  024%=      5-min Rain = 0
KGGS 242245Z 19009KT 33/09 A2964 RMK A01 T03330093  RH  024%=      5-min Rain = 0
KGGS 242250Z 18010KT 33/09 A2964 RMK A01 T03320090  RH  023%=      5-min Rain = 0
KGGS 242255Z 17010KT 33/09 A2964 RMK A01 T03320087  RH  023%=      5-min Rain = 0
KGGS 242300Z 17011KT 33/08 A2964 RMK A01 T03310084  RH  022%=      5-min Rain = 0
KGGS 242305Z 17009G14KT 33/09 A2964 RMK A01 T03300086  RH  023%=      5-min Rain = 0
KGGS 242310Z 17006KT 33/09 A2963 RMK A01 T03290093  RH  024%=      5-min Rain = 0
KGGS 242315Z 16010G15KT 33/09 A2962 RMK A01 T03300094  RH  024%=      5-min Rain = 0
KGGS 242320Z 18010KT 33/09 A2962 RMK A01 T03270090  RH  024%=      5-min Rain = 0
KGGS 242325Z 18012G17KT 33/09 A2961 RMK A01 T03260089  RH  024%=      5-min Rain = 0
KGGS 242330Z 17013G19KT 32/09 A2961 RMK A01 T03230086  RH  024%=      5-min Rain = 0
KGGS 242335Z 18019G26KT 32/13 A2961 RMK A01 T03160133  RH  034%=      5-min Rain = 0
KGGS 242340Z 18018G25KT 31/14 A2962 RMK A01 T03090142  RH  038%=      5-min Rain = 0
KGGS 242345Z 19023G32KT 30/15 A2962 RMK A01 T03020151  RH  042%=      5-min Rain = 0
KGGS 242350Z 19022G27KT 30/15 A2961 RMK A01 T02950152  RH  044%=      5-min Rain = 0
KGGS 242355Z 19019G29KT 29/15 A2961 RMK A01 T02920146  RH  043%=      5-min Rain = 0
KGGS 250000Z 19020G27KT 29/12 A2961 RMK A01 T02900123  RH  037%=      5-min Rain = 0
KGGS 250005Z 18016G23KT 29/11 A2961 RMK A01 T02870113  RH  035%=      5-min Rain = 0
KGGS 250010Z 18014G20KT 29/11 A2962 RMK A01 T02870105  RH  033%=      5-min Rain = 0
KGGS 250015Z 19014G21KT 29/10 A2963 RMK A01 T02870096  RH  031%=      5-min Rain = 0
KGGS 250020Z 20014G20KT 29/08 A2964 RMK A01 T02880082  RH  028%=      5-min Rain = 0
KGGS 250025Z 21013G22KT 29/06 A2964 RMK A01 T02880064  RH  025%=      5-min Rain = 0
KGGS 250030Z 21013G19KT 29/06 A2964 RMK A01 T02870063  RH  025%=      5-min Rain = 0
KGGS 250035Z 20016G24KT 29/06 A2964 RMK A01 T02850056  RH  024%=      5-min Rain = 0
KGGS 250040Z 21015G21KT 28/05 A2963 RMK A01 T02830050  RH  023%=      5-min Rain = 0
KGGS 250045Z 22023G33KT 28/04 A2963 RMK A01 T02810038  RH  021%=      5-min Rain = 0
KGGS 250050Z 21024G35KT 27/06 A2964 RMK A01 T02720056  RH  026%=      5-min Rain = 0
KGGS 250055Z 20024G32KT 24/08 A2966 RMK A01 T02420083  RH  037%=      5-min Rain = 0
KGGS 250100Z 21022G32KT 24/08 A2967 RMK A01 T02430076  RH  035%=      5-min Rain = 0
KGGS 250105Z 21017G24KT 25/07 A2967 RMK A01 T02490066  RH  032%=      5-min Rain = 0
KGGS 250110Z 20013G19KT 25/06 A2966 RMK A01 T02530064  RH  031%=      5-min Rain = 0
KGGS 250115Z 20012G22KT 25/07 A2966 RMK A01 T02540065  RH  030%=      5-min Rain = 0
KGGS 250120Z 22008G14KT 26/06 A2969 RMK A01 T02580059  RH  029%=      5-min Rain = 0
KGGS 250125Z 01014G20KT 24/10 A297 RMK A01 T02420102  RH  043%=      5-min Rain = 0
KGGS 250130Z 02014G29KT 23/12 A2971 RMK A01 T02250116  RH  052%=      5-min Rain = 0
KGGS 250135Z 03008G17KT 23/11 A2971 RMK A01 T02260112  RH  050%=      5-min Rain = 0
KGGS 250140Z 08009G15KT 23/12 A297 RMK A01 T02270115  RH  051%=      5-min Rain = 0
KGGS 250145Z 07010KT 22/12 A2969 RMK A01 T02220119  RH  054%=      5-min Rain = 0
KGGS 250150Z 05014G24KT 22/12 A297 RMK A01 T02190121  RH  056%=      5-min Rain = 0
KGGS 250155Z 07016G24KT 20/13 A297 RMK A01 T01990129  RH  067%=      5-min Rain = 0
KGGS 250200Z 09019G33KT 19/13 A2969 RMK A01 T01940130  RH  069%=      5-min Rain = 0
KGGS 250205Z 09020G28KT 19/13 A2968 RMK A01 T01930130  RH  070%=      5-min Rain = 0
KGGS 250210Z 08018G26KT 19/13 A2969 RMK A01 T01910131  RH  071%=      5-min Rain = 0
KGGS 250215Z 05016G28KT 19/13 A2971 RMK A01 T01910131  RH  071%=      5-min Rain = 0
KGGS 250220Z 06015G24KT 19/13 A2971 RMK A01 T01930129  RH  069%=      5-min Rain = 0
KGGS 250225Z 08013G20KT 19/13 A2968 RMK A01 T01930131  RH  070%=      5-min Rain = 0
KGGS 250230Z 06009KT 19/13 A2967 RMK A01 T01930131  RH  070%=      5-min Rain = 0
KGGS 250235Z 05009KT 19/13 A2968 RMK A01 T01920132  RH  071%=      5-min Rain = 0
KGGS 250240Z 04007KT 19/13 A2967 RMK A01 T01910133  RH  072%=      5-min Rain = 0
KGGS 250245Z 04007KT 19/13 A2968 RMK A01 T01900133  RH  072%=      5-min Rain = 0
KGGS 250250Z 05008KT 19/13 A2968 RMK A01 T01890133  RH  072%=      5-min Rain = 0
KGGS 250255Z 05009KT 19/13 A2968 RMK A01 T01910131  RH  071%=      5-min Rain = 0
KGGS 250300Z 05009G14KT 19/13 A2969 RMK A01 T01920128  RH  069%=      5-min Rain = 0
KGGS 250305Z 05010G15KT 20/13 A2968 RMK A01 T01950125  RH  067%=      5-min Rain = 0
KGGS 250310Z 05009KT 20/12 A2968 RMK A01 T01970123  RH  065%=      5-min Rain = 0
KGGS 250315Z 05009G14KT 20/12 A2967 RMK A01 T01980119  RH  063%=      5-min Rain = 0
KGGS 250320Z 06008G14KT 20/11 A2968 RMK A01 T02020114  RH  059%=      5-min Rain = 0
KGGS 250325Z 07007KT 20/11 A2968 RMK A01 T02030110  RH  057%=      5-min Rain = 0
KGGS 250330Z 08006KT 21/11 A2968 RMK A01 T02050108  RH  056%=      5-min Rain = 0
KGGS 250335Z 08006KT 21/11 A2969 RMK A01 T02060105  RH  054%=      5-min Rain = 0
KGGS 250340Z 10005KT 21/10 A297 RMK A01 T02060103  RH  053%=      5-min Rain = 0
KGGS 250345Z 10006KT 20/10 A297 RMK A01 T02040103  RH  054%=      5-min Rain = 0
KGGS 250350Z 10006KT 21/10 A2971 RMK A01 T02060100  RH  052%=      5-min Rain = 0
KGGS 250355Z 10007KT 21/10 A2971 RMK A01 T02080097  RH  050%=      5-min Rain = 0
KGGS 250400Z 09008G13KT 21/09 A2972 RMK A01 T02120093  RH  048%=      5-min Rain = 0
KGGS 250405Z 09008G13KT 21/09 A2973 RMK A01 T02120094  RH  048%=      5-min Rain = 0
KGGS 250410Z 10009G17KT 21/10 A2973 RMK A01 T02090096  RH  050%=      5-min Rain = 0
KGGS 250415Z 10012G22KT 21/10 A2974 RMK A01 T02100095  RH  049%=      5-min Rain = 0
KGGS 250420Z 10011G16KT 21/10 A2975 RMK A01 T02050100  RH  052%=      5-min Rain = 0
KGGS 250425Z 10012KT 20/10 A2976 RMK A01 T02000104  RH  056%=      5-min Rain = 0
KGGS 250430Z 10012G19KT 20/11 A2977 RMK A01 T01970107  RH  058%=      5-min Rain = 0
KGGS 250435Z 11013G21KT 19/11 A2978 RMK A01 T01920113  RH  062%=      5-min Rain = 0
KGGS 250440Z 11012G19KT 19/12 A2978 RMK A01 T01850118  RH  068%=      5-min Rain = 0
KGGS 250445Z 11010G16KT 18/12 A2979 RMK A01 T01820120  RH  069%=      5-min Rain = 0
KGGS 250450Z 10008G14KT 18/12 A2979 RMK A01 T01810120  RH  070%=      5-min Rain = 0
KGGS 250455Z 10009G16KT 18/12 A2979 RMK A01 T01800119  RH  070%=      5-min Rain = 0

Page generated in 0.0434 seconds.